createdAt,value
2019-03-03T00:00:23.470Z,47.13
2019-03-03T00:02:50.628Z,46.88
2019-03-03T00:05:17.187Z,46.40
2019-03-03T00:07:43.538Z,48.95
2019-03-03T00:10:12.588Z,48.95
2019-03-03T00:12:38.871Z,46.28
2019-03-03T00:15:08.771Z,47.30
2019-03-03T00:17:35.199Z,45.25
2019-03-03T00:20:02.828Z,52.17
2019-03-03T00:22:29.156Z,50.80
2019-03-03T00:24:55.492Z,49.00
2019-03-03T00:27:21.821Z,45.28
2019-03-03T00:29:48.239Z,41.60
2019-03-03T00:32:14.922Z,40.83
2019-03-03T00:34:41.311Z,48.78
2019-03-03T00:37:12.669Z,50.15
2019-03-03T00:39:41.772Z,47.27
2019-03-03T00:42:26.715Z,49.42
2019-03-03T00:45:02.078Z,36.85
2019-03-03T00:47:33.657Z,32.00
2019-03-03T00:50:19.992Z,34.18
2019-03-03T00:52:48.610Z,32.20
2019-03-03T00:55:34.063Z,32.28
2019-03-03T00:58:02.420Z,31.30
2019-03-03T01:00:30.949Z,31.10
2019-03-03T01:02:59.145Z,29.02
2019-03-03T01:05:27.394Z,27.75
2019-03-03T01:08:12.638Z,29.67
2019-03-03T01:10:41.075Z,29.52
2019-03-03T01:13:11.889Z,27.80
2019-03-03T01:15:38.459Z,28.87
2019-03-03T01:18:07.629Z,28.27
2019-03-03T01:20:34.053Z,28.83
2019-03-03T01:23:15.440Z,28.07
2019-03-03T01:25:41.882Z,31.68
2019-03-03T01:28:08.322Z,36.28
2019-03-03T01:30:34.746Z,33.28
2019-03-03T01:33:01.191Z,31.07
2019-03-03T01:35:27.611Z,31.90
2019-03-03T01:37:53.918Z,31.35
2019-03-03T01:40:20.172Z,30.55
2019-03-03T01:42:46.662Z,30.00
2019-03-03T01:45:14.107Z,28.23
2019-03-03T01:47:40.604Z,29.63
2019-03-03T01:50:11.576Z,30.48
2019-03-03T01:52:38.373Z,28.75
2019-03-03T01:55:09.538Z,28.57
2019-03-03T01:57:36.252Z,28.85
2019-03-03T02:00:17.619Z,28.20
2019-03-03T02:02:44.135Z,26.17
2019-03-03T02:05:10.424Z,24.92
2019-03-03T02:07:39.738Z,25.57
2019-03-03T02:10:08.347Z,24.90
2019-03-03T02:12:34.843Z,24.60
2019-03-03T02:15:01.453Z,25.12
2019-03-03T02:17:27.886Z,25.02
2019-03-03T02:19:54.256Z,25.10
2019-03-03T02:22:20.643Z,24.85
2019-03-03T02:24:46.971Z,24.87
2019-03-03T02:27:14.028Z,24.20
2019-03-03T02:29:40.367Z,22.95
2019-03-03T02:32:06.984Z,24.20
2019-03-03T02:34:33.637Z,23.07
2019-03-03T02:36:59.965Z,22.67
2019-03-03T02:39:28.102Z,22.70
2019-03-03T02:41:54.527Z,22.85
2019-03-03T02:44:20.983Z,24.02
2019-03-03T02:46:47.268Z,24.67
2019-03-03T02:49:13.660Z,23.90
2019-03-03T02:51:40.201Z,23.18
2019-03-03T02:54:08.360Z,22.77
2019-03-03T02:56:34.711Z,21.30
2019-03-03T02:59:01.360Z,22.50
2019-03-03T03:01:29.538Z,23.80
2019-03-03T03:03:55.959Z,23.18
2019-03-03T03:06:24.100Z,23.83
2019-03-03T03:09:08.885Z,22.85
2019-03-03T03:11:37.324Z,22.35
2019-03-03T03:14:05.669Z,22.62
2019-03-03T03:16:37.987Z,21.75
2019-03-03T03:19:06.397Z,22.95
2019-03-03T03:21:37.424Z,23.00
2019-03-03T03:24:19.405Z,22.40
2019-03-03T03:26:59.486Z,22.17
2019-03-03T03:29:35.040Z,22.05
2019-03-03T03:32:06.667Z,22.37
2019-03-03T03:34:37.745Z,21.90
2019-03-03T03:37:06.231Z,22.58
2019-03-03T03:39:43.386Z,21.70
2019-03-03T03:42:17.749Z,21.90
2019-03-03T03:45:02.664Z,23.25
2019-03-03T03:47:31.117Z,22.87
2019-03-03T03:50:02.110Z,22.73
2019-03-03T03:52:31.743Z,22.55
2019-03-03T03:55:01.270Z,22.80
2019-03-03T03:57:32.728Z,22.90
2019-03-03T04:00:19.380Z,23.18
2019-03-03T04:03:04.732Z,22.87
2019-03-03T04:05:50.329Z,22.58
2019-03-03T04:08:29.129Z,23.27
2019-03-03T04:10:57.469Z,23.40
2019-03-03T04:13:34.925Z,23.02
2019-03-03T04:16:13.339Z,23.62
2019-03-03T04:18:45.008Z,22.50
2019-03-03T04:21:19.805Z,23.52
2019-03-03T04:23:58.113Z,23.77
2019-03-03T04:26:30.512Z,22.95
2019-03-03T04:28:58.707Z,22.55
2019-03-03T04:31:38.976Z,23.20
2019-03-03T04:34:07.231Z,22.87
2019-03-03T04:36:52.380Z,24.20
2019-03-03T04:39:20.784Z,22.25
2019-03-03T04:41:47.105Z,22.58
2019-03-03T04:44:33.204Z,23.77
2019-03-03T04:47:17.772Z,22.80
2019-03-03T04:49:46.076Z,22.73
2019-03-03T04:52:14.265Z,23.05
2019-03-03T04:54:40.725Z,23.32
2019-03-03T04:57:12.866Z,24.95
2019-03-03T04:59:41.306Z,22.13
2019-03-03T05:02:12.309Z,24.20
2019-03-03T05:04:43.481Z,23.92
2019-03-03T05:07:14.678Z,24.27
2019-03-03T05:09:43.708Z,23.40
2019-03-03T05:12:15.807Z,23.60
2019-03-03T05:14:43.472Z,24.05
2019-03-03T05:17:25.318Z,23.70
2019-03-03T05:19:59.852Z,24.52
2019-03-03T05:22:26.655Z,24.20
2019-03-03T05:24:52.993Z,24.70
2019-03-03T05:27:19.382Z,23.95
2019-03-03T05:29:45.882Z,25.70
2019-03-03T05:32:12.161Z,23.92
2019-03-03T05:34:38.483Z,23.20
2019-03-03T05:37:04.850Z,24.35
2019-03-03T05:39:31.414Z,26.50
2019-03-03T05:41:57.902Z,25.57
2019-03-03T05:44:24.540Z,25.27
2019-03-03T05:46:50.967Z,25.02
2019-03-03T05:49:17.377Z,25.20
2019-03-03T05:51:43.774Z,26.85
2019-03-03T05:54:10.187Z,24.52
2019-03-03T05:56:36.636Z,24.82
2019-03-03T05:59:03.164Z,27.00
2019-03-03T06:01:29.512Z,25.65
2019-03-03T06:03:56.038Z,27.65
2019-03-03T06:06:22.396Z,25.02
2019-03-03T06:08:49.010Z,26.27
2019-03-03T06:11:15.413Z,26.15
2019-03-03T06:13:41.965Z,28.40
2019-03-03T06:16:08.363Z,27.80
2019-03-03T06:18:34.807Z,26.42
2019-03-03T06:21:01.175Z,26.20
2019-03-03T06:23:27.578Z,25.65
2019-03-03T06:25:53.865Z,25.55
2019-03-03T06:28:20.573Z,25.80
2019-03-03T06:30:47.118Z,24.65
2019-03-03T06:33:13.645Z,25.62
2019-03-03T06:35:42.125Z,26.57
2019-03-03T06:38:08.432Z,25.70
2019-03-03T06:40:34.972Z,25.90
2019-03-03T06:43:01.467Z,24.32
2019-03-03T06:45:29.535Z,25.20
2019-03-03T06:47:56.542Z,26.10
2019-03-03T06:50:24.172Z,25.15
2019-03-03T06:52:50.462Z,25.55
2019-03-03T06:55:16.901Z,24.45
2019-03-03T06:57:43.191Z,24.87
2019-03-03T07:00:14.071Z,24.05
2019-03-03T07:02:40.673Z,23.83
2019-03-03T07:05:09.180Z,24.37
2019-03-03T07:07:35.893Z,23.77
2019-03-03T07:10:03.419Z,23.38
2019-03-03T07:12:29.848Z,23.02
2019-03-03T07:14:56.692Z,22.20
2019-03-03T07:17:23.168Z,21.60
2019-03-03T07:19:49.558Z,22.93
2019-03-03T07:22:16.135Z,23.40
2019-03-03T07:24:42.426Z,23.45
2019-03-03T07:27:08.945Z,24.92
2019-03-03T07:29:35.275Z,24.45
2019-03-03T07:32:01.585Z,24.25
2019-03-03T07:34:28.089Z,23.83
2019-03-03T07:36:54.579Z,24.47
2019-03-03T07:39:21.366Z,25.10
2019-03-03T07:41:47.901Z,22.58
2019-03-03T07:44:14.440Z,23.12
2019-03-03T07:46:40.747Z,23.32
2019-03-03T07:49:07.300Z,23.85
2019-03-03T07:51:33.595Z,23.47
2019-03-03T07:54:00.064Z,24.32
2019-03-03T07:56:26.496Z,22.85
2019-03-03T07:58:53.447Z,22.32
2019-03-03T08:01:19.763Z,23.10
2019-03-03T08:03:46.128Z,22.90
2019-03-03T08:06:12.473Z,22.30
2019-03-03T08:08:38.966Z,21.77
2019-03-03T08:11:05.459Z,23.57
2019-03-03T08:13:31.935Z,23.40
2019-03-03T08:15:58.336Z,24.43
2019-03-03T08:18:24.671Z,23.67
2019-03-03T08:20:50.967Z,23.15
2019-03-03T08:23:17.305Z,23.05
2019-03-03T08:25:43.504Z,23.85
2019-03-03T08:28:09.904Z,21.65
2019-03-03T08:30:36.581Z,22.32
2019-03-03T08:33:03.117Z,22.52
2019-03-03T08:35:31.673Z,23.27
2019-03-03T08:37:58.302Z,24.77
2019-03-03T08:40:24.727Z,23.95
2019-03-03T08:42:55.833Z,23.90
2019-03-03T08:45:34.188Z,24.18
2019-03-03T08:48:02.454Z,23.07
2019-03-03T08:50:30.681Z,27.48
2019-03-03T08:53:01.501Z,22.48
2019-03-03T08:55:46.601Z,24.92
2019-03-03T08:58:15.766Z,25.35
2019-03-03T09:00:46.830Z,25.70
2019-03-03T09:03:32.505Z,24.63
2019-03-03T09:06:03.622Z,24.73
2019-03-03T09:08:34.567Z,25.68
2019-03-03T09:11:19.355Z,24.37
2019-03-03T09:13:47.498Z,25.40
2019-03-03T09:16:15.966Z,24.40
2019-03-03T09:18:44.325Z,25.52
2019-03-03T09:21:15.301Z,24.47
2019-03-03T09:24:01.819Z,24.65
2019-03-03T09:26:47.073Z,25.45
2019-03-03T09:29:15.456Z,25.30
2019-03-03T09:31:52.437Z,24.35
2019-03-03T09:34:21.583Z,23.38
2019-03-03T09:36:52.783Z,23.10
2019-03-03T09:39:21.267Z,22.42
2019-03-03T09:41:49.557Z,21.62
2019-03-03T09:44:17.771Z,22.45
2019-03-03T09:46:46.009Z,22.55
2019-03-03T09:49:14.935Z,20.10
2019-03-03T09:51:46.120Z,19.98
2019-03-03T09:54:26.355Z,19.70
2019-03-03T09:56:55.557Z,19.10
2019-03-03T09:59:21.981Z,19.12
2019-03-03T10:01:59.279Z,19.75
2019-03-03T10:04:44.039Z,18.52
2019-03-03T10:07:18.267Z,18.60
2019-03-03T10:09:52.750Z,16.82
2019-03-03T10:12:21.387Z,17.55
2019-03-03T10:15:08.100Z,16.55
2019-03-03T10:20:09.581Z,16.85
2019-03-03T10:22:37.982Z,17.20
2019-03-03T10:25:16.443Z,15.70
2019-03-03T10:28:03.167Z,16.37
2019-03-03T10:30:37.559Z,16.35
2019-03-03T10:33:23.582Z,16.90
2019-03-03T10:36:00.954Z,17.00
2019-03-03T10:38:36.347Z,16.95
2019-03-03T10:41:08.063Z,16.25
2019-03-03T10:43:52.780Z,16.75
2019-03-03T10:46:25.394Z,16.82
2019-03-03T10:49:05.630Z,16.30
2019-03-03T10:51:32.778Z,16.55
2019-03-03T10:54:01.197Z,15.78
2019-03-03T10:56:46.452Z,15.60
2019-03-03T10:59:14.936Z,15.72
2019-03-03T11:01:55.475Z,15.63
2019-03-03T11:04:42.048Z,16.50
2019-03-03T11:07:26.951Z,17.42
2019-03-03T11:09:58.118Z,17.50
2019-03-03T11:12:43.084Z,17.00
2019-03-03T11:15:18.401Z,17.77
2019-03-03T11:17:51.583Z,18.17
2019-03-03T11:20:36.815Z,17.50
2019-03-03T11:23:05.221Z,16.52
2019-03-03T11:25:36.389Z,18.02
2019-03-03T11:28:23.937Z,16.30
2019-03-03T11:30:52.465Z,16.17
2019-03-03T11:33:21.579Z,15.88
2019-03-03T11:35:53.685Z,16.57
2019-03-03T11:38:38.859Z,16.32
2019-03-03T11:41:10.168Z,16.93
2019-03-03T11:43:38.710Z,16.90
2019-03-03T11:46:14.317Z,16.48
2019-03-03T11:48:40.975Z,16.60
2019-03-03T11:51:11.865Z,16.70
2019-03-03T11:53:43.562Z,16.85
2019-03-03T11:56:11.915Z,16.50
2019-03-03T11:58:53.288Z,15.70
2019-03-03T12:01:21.721Z,15.80
2019-03-03T12:03:50.025Z,17.00
2019-03-03T12:06:22.436Z,15.98
2019-03-03T12:08:51.506Z,16.32
2019-03-03T12:11:35.393Z,16.65
2019-03-03T12:14:04.198Z,16.52
2019-03-03T12:16:32.742Z,16.48
2019-03-03T12:19:10.153Z,15.72
2019-03-03T12:21:39.247Z,17.00
2019-03-03T12:24:10.717Z,15.15
2019-03-03T12:26:56.179Z,16.73
2019-03-03T12:29:33.343Z,16.70
2019-03-03T12:32:12.496Z,15.50
2019-03-03T12:34:46.799Z,15.93
2019-03-03T12:37:33.724Z,15.05
2019-03-03T12:40:08.167Z,15.83
2019-03-03T12:42:39.297Z,16.42
2019-03-03T12:45:11.033Z,18.23
2019-03-03T12:47:37.327Z,16.67
2019-03-03T12:50:28.516Z,17.15
2019-03-03T12:53:14.153Z,16.80
2019-03-03T12:55:40.583Z,16.52
2019-03-03T12:58:25.393Z,19.77
2019-03-03T13:01:02.553Z,19.23
2019-03-03T13:03:47.239Z,17.35
2019-03-03T13:06:24.062Z,18.98
2019-03-03T13:09:01.071Z,18.12
2019-03-03T13:11:45.811Z,19.30
2019-03-03T13:14:19.933Z,19.20
2019-03-03T13:17:04.917Z,20.15
2019-03-03T13:19:43.408Z,18.25
2019-03-03T13:22:29.783Z,17.23
2019-03-03T13:25:06.800Z,17.02
2019-03-03T13:27:35.432Z,16.40
2019-03-03T13:30:06.325Z,16.85
2019-03-03T13:32:51.607Z,16.67
2019-03-03T13:35:36.480Z,16.55
2019-03-03T13:38:21.957Z,16.60
2019-03-03T13:41:03.774Z,16.17
2019-03-03T13:43:30.243Z,15.63
2019-03-03T13:45:56.729Z,15.80
2019-03-03T13:48:23.170Z,15.30
2019-03-03T13:50:49.690Z,16.00
2019-03-03T13:53:16.100Z,17.67
2019-03-03T13:55:42.604Z,16.97
2019-03-03T13:58:08.947Z,17.02
2019-03-03T14:00:35.450Z,17.30
2019-03-03T14:03:02.051Z,16.32
2019-03-03T14:05:28.795Z,16.62
2019-03-03T14:07:55.248Z,16.40
2019-03-03T14:10:22.067Z,18.37
2019-03-03T14:12:48.656Z,16.57
2019-03-03T14:15:17.875Z,18.20
2019-03-03T14:17:46.222Z,19.37
2019-03-03T14:20:17.291Z,20.00
2019-03-03T14:22:43.644Z,20.90
2019-03-03T14:25:10.476Z,20.40
2019-03-03T14:27:37.589Z,20.55
2019-03-03T14:30:11.913Z,20.43
2019-03-03T14:32:38.552Z,18.35
2019-03-03T14:35:08.586Z,20.40
2019-03-03T14:37:35.256Z,18.90
2019-03-03T14:40:03.251Z,20.20
2019-03-03T14:42:29.640Z,20.92
2019-03-03T14:44:56.290Z,19.45
2019-03-03T14:47:24.499Z,20.32
2019-03-03T14:49:53.089Z,19.62
2019-03-03T14:52:19.389Z,18.92
2019-03-03T14:54:45.751Z,19.48
2019-03-03T14:57:12.147Z,19.95
2019-03-03T14:59:38.780Z,20.57
2019-03-03T15:02:05.505Z,21.12
2019-03-03T15:04:32.055Z,19.92
2019-03-03T15:06:58.360Z,21.48
2019-03-03T15:09:24.697Z,20.20
2019-03-03T15:11:51.594Z,19.62
2019-03-03T15:14:17.934Z,18.92
2019-03-03T15:16:44.490Z,19.50
2019-03-03T15:19:10.847Z,19.05
2019-03-03T15:21:37.956Z,18.62
2019-03-03T15:24:04.361Z,17.67
2019-03-03T15:26:30.955Z,18.77
2019-03-03T15:28:57.363Z,19.50
2019-03-03T15:31:23.721Z,19.82
2019-03-03T15:33:50.387Z,19.15
2019-03-03T15:36:16.900Z,20.48
2019-03-03T15:38:43.415Z,18.62
2019-03-03T15:41:09.795Z,18.12
2019-03-03T15:43:36.327Z,17.55
2019-03-03T15:46:03.198Z,17.90
2019-03-03T15:48:29.506Z,18.73
2019-03-03T15:50:55.809Z,18.80
2019-03-03T15:53:22.315Z,18.67
2019-03-03T15:55:48.868Z,17.60
2019-03-03T15:58:15.469Z,19.17
2019-03-03T16:00:42.162Z,18.70
2019-03-03T16:03:09.587Z,17.80
2019-03-03T16:05:36.085Z,19.57
2019-03-03T16:08:02.625Z,20.68
2019-03-03T16:10:29.148Z,19.10
2019-03-03T16:12:55.838Z,19.67
2019-03-03T16:15:22.419Z,19.73
2019-03-03T16:17:49.452Z,20.52
2019-03-03T16:20:21.174Z,19.90
2019-03-03T16:22:47.934Z,18.90
2019-03-03T16:25:17.430Z,19.37
2019-03-03T16:27:43.943Z,17.75
2019-03-03T16:30:22.373Z,18.48
2019-03-03T16:32:48.897Z,17.95
2019-03-03T16:35:15.832Z,18.42
2019-03-03T16:37:42.639Z,18.35
2019-03-03T16:40:18.804Z,19.85
2019-03-03T16:45:14.417Z,18.85
2019-03-03T16:47:41.004Z,18.62
2019-03-03T16:50:15.930Z,18.48
2019-03-03T16:52:42.557Z,18.82
2019-03-03T16:55:12.057Z,18.65
2019-03-03T16:57:38.576Z,19.02
2019-03-03T17:00:10.396Z,18.75
2019-03-03T17:02:36.805Z,18.82
2019-03-03T17:05:07.733Z,17.75
2019-03-03T17:07:34.047Z,17.52
2019-03-03T17:10:00.531Z,19.30
2019-03-03T17:12:26.892Z,20.02
2019-03-03T17:14:53.299Z,22.22
2019-03-03T17:17:19.593Z,20.82
2019-03-03T17:19:46.079Z,20.08
2019-03-03T17:22:12.385Z,19.65
2019-03-03T17:24:38.988Z,18.92
2019-03-03T17:27:05.636Z,21.87
2019-03-03T17:29:32.067Z,22.25
2019-03-03T17:31:58.355Z,21.40
2019-03-03T17:34:24.889Z,23.20
2019-03-03T17:36:51.586Z,22.45
2019-03-03T17:39:18.195Z,21.80
2019-03-03T17:41:44.679Z,21.37
2019-03-03T17:44:11.113Z,22.52
2019-03-03T17:46:37.653Z,21.57
2019-03-03T17:49:03.936Z,21.70
2019-03-03T17:51:30.263Z,23.50
2019-03-03T17:53:56.617Z,22.22
2019-03-03T17:56:23.021Z,21.70
2019-03-03T17:58:49.330Z,22.15
2019-03-03T18:01:15.815Z,21.40
2019-03-03T18:03:42.229Z,21.82
2019-03-03T18:06:08.655Z,22.27
2019-03-03T18:08:34.949Z,22.65
2019-03-03T18:11:01.835Z,23.42
2019-03-03T18:13:28.246Z,23.15
2019-03-03T18:15:54.654Z,22.05
2019-03-03T18:18:21.183Z,20.92
2019-03-03T18:20:47.724Z,21.68
2019-03-03T18:23:14.163Z,23.18
2019-03-03T18:25:40.651Z,23.62
2019-03-03T18:28:07.120Z,23.75
2019-03-03T18:30:33.656Z,22.17
2019-03-03T18:33:00.090Z,22.60
2019-03-03T18:35:28.475Z,19.65
2019-03-03T18:37:55.100Z,22.25
2019-03-03T18:40:23.894Z,20.95
2019-03-03T18:42:50.448Z,22.20
2019-03-03T18:45:18.947Z,20.12
2019-03-03T18:47:45.859Z,21.45
2019-03-03T18:50:17.106Z,19.45
2019-03-03T18:52:43.431Z,18.17
2019-03-03T18:55:10.470Z,19.65
2019-03-03T18:57:37.853Z,19.25
2019-03-03T19:00:12.731Z,20.65
2019-03-03T19:02:39.502Z,18.37
2019-03-03T19:05:07.436Z,18.23
2019-03-03T19:07:34.103Z,17.73
2019-03-03T19:10:00.452Z,18.73
2019-03-03T19:12:26.868Z,16.67
2019-03-03T19:14:53.624Z,17.37
2019-03-03T19:17:19.959Z,18.25
2019-03-03T19:19:46.266Z,18.65
2019-03-03T19:22:12.732Z,17.95
2019-03-03T19:24:39.208Z,17.20
2019-03-03T19:27:05.788Z,18.55
2019-03-03T19:29:32.388Z,18.10
2019-03-03T19:31:58.860Z,17.77
2019-03-03T19:34:25.296Z,16.82
2019-03-03T19:36:51.714Z,17.85
2019-03-03T19:39:18.659Z,19.15
2019-03-03T19:41:45.095Z,18.55
2019-03-03T19:44:11.510Z,17.42
2019-03-03T19:46:38.167Z,18.12
2019-03-03T19:49:05.214Z,17.70
2019-03-03T19:51:31.856Z,16.97
2019-03-03T19:53:58.336Z,18.52
2019-03-03T19:56:24.756Z,18.20
2019-03-03T19:58:51.119Z,16.27
2019-03-03T20:01:17.478Z,16.23
2019-03-03T20:03:44.032Z,17.52
2019-03-03T20:06:10.760Z,16.20
2019-03-03T20:08:37.405Z,15.48
2019-03-03T20:11:04.178Z,15.70
2019-03-03T20:13:30.733Z,16.40
2019-03-03T20:15:57.102Z,18.25
2019-03-03T20:18:23.432Z,18.55
2019-03-03T20:20:49.838Z,16.27
2019-03-03T20:23:16.612Z,17.05
2019-03-03T20:25:43.133Z,17.75
2019-03-03T20:28:09.624Z,17.20
2019-03-03T20:30:36.971Z,18.67
2019-03-03T20:33:04.222Z,19.90
2019-03-03T20:35:30.639Z,20.62
2019-03-03T20:37:56.841Z,18.30
2019-03-03T20:40:27.308Z,16.80
2019-03-03T20:42:54.505Z,15.88
2019-03-03T20:45:24.511Z,8.58
2019-03-03T20:47:50.840Z,13.00
2019-03-03T20:50:19.438Z,12.18
2019-03-03T20:52:46.193Z,14.03
2019-03-03T20:55:15.886Z,14.73
2019-03-03T20:57:42.741Z,13.78
2019-03-03T21:00:20.893Z,12.33
2019-03-03T21:02:47.655Z,12.37
2019-03-03T21:05:14.247Z,14.13
2019-03-03T21:07:50.609Z,13.83
2019-03-03T21:10:17.312Z,13.20
2019-03-03T21:12:43.596Z,13.85
2019-03-03T21:15:11.919Z,14.93
2019-03-03T21:17:38.919Z,14.70
2019-03-03T21:20:16.363Z,15.70
2019-03-03T21:22:42.860Z,14.43
2019-03-03T21:25:12.107Z,15.15
2019-03-03T21:27:39.152Z,13.93
2019-03-03T21:30:26.388Z,14.35
2019-03-03T21:32:52.892Z,15.20
2019-03-03T21:35:19.381Z,17.77
2019-03-03T21:37:46.470Z,16.85
2019-03-03T21:40:25.147Z,16.15
2019-03-03T21:42:51.680Z,15.95
2019-03-03T21:45:20.442Z,14.28
2019-03-03T21:47:46.961Z,14.63
2019-03-03T21:50:16.062Z,13.88
2019-03-03T21:52:42.678Z,12.70
2019-03-03T21:55:11.652Z,13.90
2019-03-03T21:57:37.944Z,14.15
2019-03-03T22:00:12.935Z,14.75
2019-03-03T22:02:39.364Z,13.88
2019-03-03T22:05:05.993Z,13.95
2019-03-03T22:07:32.287Z,14.23
2019-03-03T22:09:58.691Z,13.83
2019-03-03T22:12:25.265Z,13.32
2019-03-03T22:14:51.597Z,15.35
2019-03-03T22:17:17.914Z,12.40
2019-03-03T22:19:44.374Z,14.40
2019-03-03T22:22:10.708Z,14.03
2019-03-03T22:24:37.012Z,13.78
2019-03-03T22:27:03.616Z,13.08
2019-03-03T22:29:30.107Z,15.58
2019-03-03T22:31:56.531Z,14.83
2019-03-03T22:34:22.975Z,14.07
2019-03-03T22:36:49.303Z,14.07
2019-03-03T22:39:15.702Z,14.30
2019-03-03T22:41:42.205Z,10.53
2019-03-03T22:44:08.793Z,12.30
2019-03-03T22:46:35.107Z,13.70
2019-03-03T22:49:01.544Z,13.38
2019-03-03T22:51:27.866Z,15.28
2019-03-03T22:53:54.285Z,13.15
2019-03-03T22:56:20.697Z,12.80
2019-03-03T22:58:46.898Z,13.05
2019-03-03T23:01:17.691Z,12.73
2019-03-03T23:04:29.366Z,13.18
2019-03-03T23:07:10.171Z,14.20
2019-03-03T23:10:13.561Z,13.50
2019-03-03T23:13:02.248Z,14.30
2019-03-03T23:15:46.504Z,13.30
2019-03-03T23:18:36.538Z,12.45
2019-03-03T23:21:23.745Z,12.25
2019-03-03T23:24:21.319Z,13.20
2019-03-03T23:26:47.631Z,12.07
2019-03-03T23:29:13.819Z,12.53
2019-03-03T23:31:40.263Z,12.58
2019-03-03T23:34:06.557Z,12.78
2019-03-03T23:36:33.063Z,12.45
2019-03-03T23:38:59.606Z,13.40
2019-03-03T23:41:25.949Z,12.82
2019-03-03T23:43:52.272Z,11.53
2019-03-03T23:46:18.655Z,12.25
2019-03-03T23:48:45.189Z,12.37
2019-03-03T23:51:11.571Z,11.45
2019-03-03T23:53:38.458Z,11.55
2019-03-03T23:56:04.936Z,10.23
2019-03-03T23:58:31.520Z,10.00
